sensor_id;sensor_type;location;lat;lon;timestamp;temperature;humidity
64718;DHT22;62506;46.070;14.492;2023-04-15T00:01:04;21.40;52.80
64718;DHT22;62506;46.070;14.492;2023-04-15T00:03:30;21.40;52.80
64718;DHT22;62506;46.070;14.492;2023-04-15T00:05:56;21.40;52.80
64718;DHT22;62506;46.070;14.492;2023-04-15T00:08:22;21.40;52.90
64718;DHT22;62506;46.070;14.492;2023-04-15T00:10:50;21.30;52.90
64718;DHT22;62506;46.070;14.492;2023-04-15T00:13:15;21.40;52.80
64718;DHT22;62506;46.070;14.492;2023-04-15T00:15:41;21.40;52.90
64718;DHT22;62506;46.070;14.492;2023-04-15T00:18:07;21.40;52.90
64718;DHT22;62506;46.070;14.492;2023-04-15T00:20:33;21.40;52.90
64718;DHT22;62506;46.070;14.492;2023-04-15T00:22:59;21.40;53.00
64718;DHT22;62506;46.070;14.492;2023-04-15T00:25:25;21.40;52.90
64718;DHT22;62506;46.070;14.492;2023-04-15T00:27:50;21.40;52.90
64718;DHT22;62506;46.070;14.492;2023-04-15T00:30:16;21.40;52.90
64718;DHT22;62506;46.070;14.492;2023-04-15T00:32:41;21.40;52.90
64718;DHT22;62506;46.070;14.492;2023-04-15T00:35:07;21.40;52.90
64718;DHT22;62506;46.070;14.492;2023-04-15T00:37:33;21.40;52.90
64718;DHT22;62506;46.070;14.492;2023-04-15T00:39:59;21.30;52.90
64718;DHT22;62506;46.070;14.492;2023-04-15T00:42:25;21.40;53.00
64718;DHT22;62506;46.070;14.492;2023-04-15T00:44:50;21.40;52.90
64718;DHT22;62506;46.070;14.492;2023-04-15T00:47:16;21.40;52.90
64718;DHT22;62506;46.070;14.492;2023-04-15T00:49:42;21.40;53.10
64718;DHT22;62506;46.070;14.492;2023-04-15T00:52:07;21.30;53.10
64718;DHT22;62506;46.070;14.492;2023-04-15T00:54:33;21.30;53.10
64718;DHT22;62506;46.070;14.492;2023-04-15T00:56:58;21.30;53.10
64718;DHT22;62506;46.070;14.492;2023-04-15T00:59:24;21.30;53.20
64718;DHT22;62506;46.070;14.492;2023-04-15T01:01:50;21.30;53.20
64718;DHT22;62506;46.070;14.492;2023-04-15T01:04:16;21.30;53.30
64718;DHT22;62506;46.070;14.492;2023-04-15T01:06:42;21.30;53.30
64718;DHT22;62506;46.070;14.492;2023-04-15T01:09:07;21.30;53.30
64718;DHT22;62506;46.070;14.492;2023-04-15T01:11:33;21.30;53.30
64718;DHT22;62506;46.070;14.492;2023-04-15T01:13:59;21.30;53.30
64718;DHT22;62506;46.070;14.492;2023-04-15T01:16:24;21.20;53.40
64718;DHT22;62506;46.070;14.492;2023-04-15T01:18:50;21.30;53.30
64718;DHT22;62506;46.070;14.492;2023-04-15T01:21:16;21.30;53.30
64718;DHT22;62506;46.070;14.492;2023-04-15T01:23:42;21.30;53.40
64718;DHT22;62506;46.070;14.492;2023-04-15T01:26:08;21.30;53.40
64718;DHT22;62506;46.070;14.492;2023-04-15T01:28:34;21.30;53.30
64718;DHT22;62506;46.070;14.492;2023-04-15T01:31:04;21.30;53.40
64718;DHT22;62506;46.070;14.492;2023-04-15T01:33:31;21.20;53.40
64718;DHT22;62506;46.070;14.492;2023-04-15T01:35:57;21.20;53.40
64718;DHT22;62506;46.070;14.492;2023-04-15T01:38:22;21.20;53.40
64718;DHT22;62506;46.070;14.492;2023-04-15T01:40:48;21.30;53.30
64718;DHT22;62506;46.070;14.492;2023-04-15T01:43:13;21.30;53.30
64718;DHT22;62506;46.070;14.492;2023-04-15T01:45:39;21.30;53.30
64718;DHT22;62506;46.070;14.492;2023-04-15T01:48:06;21.30;53.30
64718;DHT22;62506;46.070;14.492;2023-04-15T01:50:31;21.30;53.30
64718;DHT22;62506;46.070;14.492;2023-04-15T01:52:57;21.30;53.30
64718;DHT22;62506;46.070;14.492;2023-04-15T01:55:22;21.30;53.30
64718;DHT22;62506;46.070;14.492;2023-04-15T01:57:48;21.30;53.20
64718;DHT22;62506;46.070;14.492;2023-04-15T02:00:13;21.30;53.20
64718;DHT22;62506;46.070;14.492;2023-04-15T02:02:39;21.30;53.20
64718;DHT22;62506;46.070;14.492;2023-04-15T02:05:04;21.30;53.20
64718;DHT22;62506;46.070;14.492;2023-04-15T02:07:30;21.30;53.20
64718;DHT22;62506;46.070;14.492;2023-04-15T02:09:56;21.30;53.20
64718;DHT22;62506;46.070;14.492;2023-04-15T02:12:22;21.30;53.20
64718;DHT22;62506;46.070;14.492;2023-04-15T02:14:47;21.30;53.20
64718;DHT22;62506;46.070;14.492;2023-04-15T02:17:13;21.30;53.30
64718;DHT22;62506;46.070;14.492;2023-04-15T02:19:38;21.30;53.40
64718;DHT22;62506;46.070;14.492;2023-04-15T02:22:05;21.30;53.30
64718;DHT22;62506;46.070;14.492;2023-04-15T02:24:33;21.20;54.10
64718;DHT22;62506;46.070;14.492;2023-04-15T02:26:58;21.20;53.40
64718;DHT22;62506;46.070;14.492;2023-04-15T02:29:25;21.20;53.40
64718;DHT22;62506;46.070;14.492;2023-04-15T02:31:50;21.20;53.40
64718;DHT22;62506;46.070;14.492;2023-04-15T02:34:16;21.20;53.50
64718;DHT22;62506;46.070;14.492;2023-04-15T02:36:42;21.20;53.50
64718;DHT22;62506;46.070;14.492;2023-04-15T02:39:07;21.20;53.50
64718;DHT22;62506;46.070;14.492;2023-04-15T02:41:33;21.20;53.60
64718;DHT22;62506;46.070;14.492;2023-04-15T02:43:59;21.20;53.60
64718;DHT22;62506;46.070;14.492;2023-04-15T02:46:24;21.20;53.60
64718;DHT22;62506;46.070;14.492;2023-04-15T02:48:51;21.20;53.60
64718;DHT22;62506;46.070;14.492;2023-04-15T02:51:18;21.20;53.60
64718;DHT22;62506;46.070;14.492;2023-04-15T02:53:44;21.20;53.60
64718;DHT22;62506;46.070;14.492;2023-04-15T02:56:10;21.20;53.60
64718;DHT22;62506;46.070;14.492;2023-04-15T02:58:36;21.20;53.60
64718;DHT22;62506;46.070;14.492;2023-04-15T03:01:02;21.20;53.50
64718;DHT22;62506;46.070;14.492;2023-04-15T03:03:27;21.20;53.50
64718;DHT22;62506;46.070;14.492;2023-04-15T03:05:53;21.20;53.50
64718;DHT22;62506;46.070;14.492;2023-04-15T03:08:19;21.20;53.40
64718;DHT22;62506;46.070;14.492;2023-04-15T03:10:45;21.20;53.50
64718;DHT22;62506;46.070;14.492;2023-04-15T03:13:11;21.20;53.40
64718;DHT22;62506;46.070;14.492;2023-04-15T03:15:37;21.20;53.40
64718;DHT22;62506;46.070;14.492;2023-04-15T03:18:02;21.20;53.50
64718;DHT22;62506;46.070;14.492;2023-04-15T03:20:28;21.20;53.50
64718;DHT22;62506;46.070;14.492;2023-04-15T03:22:53;21.20;53.40
64718;DHT22;62506;46.070;14.492;2023-04-15T03:25:19;21.20;53.40
64718;DHT22;62506;46.070;14.492;2023-04-15T03:27:44;21.20;53.40
64718;DHT22;62506;46.070;14.492;2023-04-15T03:30:10;21.20;53.40
64718;DHT22;62506;46.070;14.492;2023-04-15T03:32:36;21.20;53.40
64718;DHT22;62506;46.070;14.492;2023-04-15T03:35:02;21.20;53.40
64718;DHT22;62506;46.070;14.492;2023-04-15T03:37:27;21.20;53.40
64718;DHT22;62506;46.070;14.492;2023-04-15T03:39:53;21.20;53.40
64718;DHT22;62506;46.070;14.492;2023-04-15T03:42:18;21.20;53.40
64718;DHT22;62506;46.070;14.492;2023-04-15T03:44:44;21.20;53.50
64718;DHT22;62506;46.070;14.492;2023-04-15T03:47:10;21.20;53.50
64718;DHT22;62506;46.070;14.492;2023-04-15T03:49:35;21.20;53.50
64718;DHT22;62506;46.070;14.492;2023-04-15T03:52:01;21.20;53.60
64718;DHT22;62506;46.070;14.492;2023-04-15T03:54:27;21.20;53.50
64718;DHT22;62506;46.070;14.492;2023-04-15T03:56:52;21.20;53.50
64718;DHT22;62506;46.070;14.492;2023-04-15T03:59:18;21.20;53.50
64718;DHT22;62506;46.070;14.492;2023-04-15T04:01:43;21.20;53.50
64718;DHT22;62506;46.070;14.492;2023-04-15T04:04:09;21.20;53.50
64718;DHT22;62506;46.070;14.492;2023-04-15T04:06:35;21.20;53.50
64718;DHT22;62506;46.070;14.492;2023-04-15T04:09:00;21.20;53.50
64718;DHT22;62506;46.070;14.492;2023-04-15T04:11:26;21.20;53.60
64718;DHT22;62506;46.070;14.492;2023-04-15T04:13:52;21.20;53.70
64718;DHT22;62506;46.070;14.492;2023-04-15T04:16:18;21.10;53.70
64718;DHT22;62506;46.070;14.492;2023-04-15T04:18:44;21.10;53.60
64718;DHT22;62506;46.070;14.492;2023-04-15T04:21:09;21.10;53.70
64718;DHT22;62506;46.070;14.492;2023-04-15T04:23:35;21.10;53.70
64718;DHT22;62506;46.070;14.492;2023-04-15T04:26:00;21.10;53.70
64718;DHT22;62506;46.070;14.492;2023-04-15T04:28:26;21.10;53.70
64718;DHT22;62506;46.070;14.492;2023-04-15T04:30:52;21.10;53.70
64718;DHT22;62506;46.070;14.492;2023-04-15T04:33:18;21.10;53.70
64718;DHT22;62506;46.070;14.492;2023-04-15T04:35:43;21.10;53.70
64718;DHT22;62506;46.070;14.492;2023-04-15T04:38:09;21.10;53.80
64718;DHT22;62506;46.070;14.492;2023-04-15T04:40:34;21.10;53.70
64718;DHT22;62506;46.070;14.492;2023-04-15T04:43:00;21.10;53.70
64718;DHT22;62506;46.070;14.492;2023-04-15T04:45:26;21.10;53.90
64718;DHT22;62506;46.070;14.492;2023-04-15T04:47:51;21.10;53.80
64718;DHT22;62506;46.070;14.492;2023-04-15T04:50:17;21.10;53.70
64718;DHT22;62506;46.070;14.492;2023-04-15T04:52:42;21.10;53.70
64718;DHT22;62506;46.070;14.492;2023-04-15T04:55:08;21.10;53.60
64718;DHT22;62506;46.070;14.492;2023-04-15T04:57:33;21.10;53.40
64718;DHT22;62506;46.070;14.492;2023-04-15T05:00:04;21.10;53.30
64718;DHT22;62506;46.070;14.492;2023-04-15T05:02:30;21.10;53.20
64718;DHT22;62506;46.070;14.492;2023-04-15T05:04:56;21.10;53.10
64718;DHT22;62506;46.070;14.492;2023-04-15T05:07:22;21.10;53.20
64718;DHT22;62506;46.070;14.492;2023-04-15T05:09:47;21.10;53.00
64718;DHT22;62506;46.070;14.492;2023-04-15T05:12:13;21.10;53.10
64718;DHT22;62506;46.070;14.492;2023-04-15T05:14:42;21.10;53.20
64718;DHT22;62506;46.070;14.492;2023-04-15T05:17:08;21.10;53.40
64718;DHT22;62506;46.070;14.492;2023-04-15T05:19:34;21.10;53.40
64718;DHT22;62506;46.070;14.492;2023-04-15T05:21:59;21.20;53.30
64718;DHT22;62506;46.070;14.492;2023-04-15T05:24:25;21.20;53.50
64718;DHT22;62506;46.070;14.492;2023-04-15T05:26:50;21.20;54.00
64718;DHT22;62506;46.070;14.492;2023-04-15T05:29:16;21.20;54.40
64718;DHT22;62506;46.070;14.492;2023-04-15T05:31:42;21.20;54.50
64718;DHT22;62506;46.070;14.492;2023-04-15T05:34:07;21.30;55.10
64718;DHT22;62506;46.070;14.492;2023-04-15T05:36:33;21.30;55.30
64718;DHT22;62506;46.070;14.492;2023-04-15T05:38:58;21.30;55.50
64718;DHT22;62506;46.070;14.492;2023-04-15T05:41:24;21.30;55.60
64718;DHT22;62506;46.070;14.492;2023-04-15T05:43:49;21.30;55.50
64718;DHT22;62506;46.070;14.492;2023-04-15T05:46:15;21.40;55.70
64718;DHT22;62506;46.070;14.492;2023-04-15T05:48:41;21.40;55.60
64718;DHT22;62506;46.070;14.492;2023-04-15T05:51:06;21.30;52.10
64718;DHT22;62506;46.070;14.492;2023-04-15T05:53:32;21.30;53.40
64718;DHT22;62506;46.070;14.492;2023-04-15T05:55:58;21.30;54.30
64718;DHT22;62506;46.070;14.492;2023-04-15T05:58:23;21.30;54.30
64718;DHT22;62506;46.070;14.492;2023-04-15T06:00:49;21.40;54.30
64718;DHT22;62506;46.070;14.492;2023-04-15T06:03:14;21.40;53.90
64718;DHT22;62506;46.070;14.492;2023-04-15T06:05:40;21.40;53.90
64718;DHT22;62506;46.070;14.492;2023-04-15T06:08:06;21.40;54.30
64718;DHT22;62506;46.070;14.492;2023-04-15T06:10:31;21.50;54.40
64718;DHT22;62506;46.070;14.492;2023-04-15T06:13:01;21.50;54.40
64718;DHT22;62506;46.070;14.492;2023-04-15T06:15:28;21.60;54.40
64718;DHT22;62506;46.070;14.492;2023-04-15T06:17:53;21.60;54.20
64718;DHT22;62506;46.070;14.492;2023-04-15T06:20:19;21.70;54.10
64718;DHT22;62506;46.070;14.492;2023-04-15T06:22:44;21.70;53.90
64718;DHT22;62506;46.070;14.492;2023-04-15T06:25:10;21.70;53.70
64718;DHT22;62506;46.070;14.492;2023-04-15T06:27:35;21.80;53.70
64718;DHT22;62506;46.070;14.492;2023-04-15T06:30:01;21.80;53.40
64718;DHT22;62506;46.070;14.492;2023-04-15T06:32:27;21.90;53.40
64718;DHT22;62506;46.070;14.492;2023-04-15T06:34:52;21.90;53.10
64718;DHT22;62506;46.070;14.492;2023-04-15T06:37:18;21.90;53.00
64718;DHT22;62506;46.070;14.492;2023-04-15T06:39:43;22.00;53.00
64718;DHT22;62506;46.070;14.492;2023-04-15T06:42:09;22.00;52.90
64718;DHT22;62506;46.070;14.492;2023-04-15T06:44:35;22.00;52.90
64718;DHT22;62506;46.070;14.492;2023-04-15T06:47:01;22.10;53.20
64718;DHT22;62506;46.070;14.492;2023-04-15T06:49:27;22.10;53.30
64718;DHT22;62506;46.070;14.492;2023-04-15T06:51:52;22.10;53.10
64718;DHT22;62506;46.070;14.492;2023-04-15T06:54:18;22.10;52.90
64718;DHT22;62506;46.070;14.492;2023-04-15T06:56:43;22.10;52.80
64718;DHT22;62506;46.070;14.492;2023-04-15T06:59:09;22.10;52.70
64718;DHT22;62506;46.070;14.492;2023-04-15T07:01:35;22.10;52.60
64718;DHT22;62506;46.070;14.492;2023-04-15T07:04:00;22.10;52.50
64718;DHT22;62506;46.070;14.492;2023-04-15T07:06:26;22.10;52.30
64718;DHT22;62506;46.070;14.492;2023-04-15T07:08:52;22.10;52.40
64718;DHT22;62506;46.070;14.492;2023-04-15T07:11:18;22.20;52.50
64718;DHT22;62506;46.070;14.492;2023-04-15T07:13:44;22.10;52.60
64718;DHT22;62506;46.070;14.492;2023-04-15T07:16:09;22.10;52.60
64718;DHT22;62506;46.070;14.492;2023-04-15T07:18:35;22.10;52.50
64718;DHT22;62506;46.070;14.492;2023-04-15T07:21:01;22.10;51.60
64718;DHT22;62506;46.070;14.492;2023-04-15T07:23:27;22.10;52.20
64718;DHT22;62506;46.070;14.492;2023-04-15T07:25:52;22.10;52.70
64718;DHT22;62506;46.070;14.492;2023-04-15T07:28:18;22.10;52.70
64718;DHT22;62506;46.070;14.492;2023-04-15T07:30:46;22.20;52.90
64718;DHT22;62506;46.070;14.492;2023-04-15T07:33:11;22.20;52.80
64718;DHT22;62506;46.070;14.492;2023-04-15T07:35:37;22.10;52.80
64718;DHT22;62506;46.070;14.492;2023-04-15T07:38:03;22.00;48.10
64718;DHT22;62506;46.070;14.492;2023-04-15T07:40:28;22.00;50.70
64718;DHT22;62506;46.070;14.492;2023-04-15T07:42:57;22.00;51.50
64718;DHT22;62506;46.070;14.492;2023-04-15T07:45:23;22.00;51.50
64718;DHT22;62506;46.070;14.492;2023-04-15T07:47:48;22.00;51.70
64718;DHT22;62506;46.070;14.492;2023-04-15T07:50:15;22.00;51.80
64718;DHT22;62506;46.070;14.492;2023-04-15T07:52:42;22.00;51.90
64718;DHT22;62506;46.070;14.492;2023-04-15T07:55:08;22.00;52.10
64718;DHT22;62506;46.070;14.492;2023-04-15T07:57:34;22.00;52.00
64718;DHT22;62506;46.070;14.492;2023-04-15T08:00:00;22.00;51.80
64718;DHT22;62506;46.070;14.492;2023-04-15T08:02:26;21.90;51.90
64718;DHT22;62506;46.070;14.492;2023-04-15T08:04:51;21.90;51.90
64718;DHT22;62506;46.070;14.492;2023-04-15T08:07:18;21.90;51.80
64718;DHT22;62506;46.070;14.492;2023-04-15T08:09:44;21.90;51.90
64718;DHT22;62506;46.070;14.492;2023-04-15T08:12:10;21.90;51.90
64718;DHT22;62506;46.070;14.492;2023-04-15T08:14:38;21.90;52.00
64718;DHT22;62506;46.070;14.492;2023-04-15T08:17:03;21.90;52.00
64718;DHT22;62506;46.070;14.492;2023-04-15T08:19:29;21.90;52.00
64718;DHT22;62506;46.070;14.492;2023-04-15T08:21:55;21.90;52.00
64718;DHT22;62506;46.070;14.492;2023-04-15T08:24:21;21.90;52.00
64718;DHT22;62506;46.070;14.492;2023-04-15T08:26:47;21.90;52.00
64718;DHT22;62506;46.070;14.492;2023-04-15T08:29:12;21.80;51.90
64718;DHT22;62506;46.070;14.492;2023-04-15T08:31:38;21.90;51.90
64718;DHT22;62506;46.070;14.492;2023-04-15T08:34:04;21.70;45.90
64718;DHT22;62506;46.070;14.492;2023-04-15T08:36:29;21.60;48.90
64718;DHT22;62506;46.070;14.492;2023-04-15T08:38:56;21.60;50.30
64718;DHT22;62506;46.070;14.492;2023-04-15T08:41:25;21.70;50.60
64718;DHT22;62506;46.070;14.492;2023-04-15T08:43:52;21.70;50.80
64718;DHT22;62506;46.070;14.492;2023-04-15T08:46:19;21.80;50.40
64718;DHT22;62506;46.070;14.492;2023-04-15T08:48:47;21.60;45.60
64718;DHT22;62506;46.070;14.492;2023-04-15T08:51:14;21.40;47.60
64718;DHT22;62506;46.070;14.492;2023-04-15T08:53:43;21.50;48.70
64718;DHT22;62506;46.070;14.492;2023-04-15T08:56:13;21.60;49.40
64718;DHT22;62506;46.070;14.492;2023-04-15T08:58:38;21.70;50.10
64718;DHT22;62506;46.070;14.492;2023-04-15T09:01:04;21.70;50.30
64718;DHT22;62506;46.070;14.492;2023-04-15T09:03:29;21.70;50.20
64718;DHT22;62506;46.070;14.492;2023-04-15T09:05:56;21.70;48.00
64718;DHT22;62506;46.070;14.492;2023-04-15T09:08:21;21.60;48.80
64718;DHT22;62506;46.070;14.492;2023-04-15T09:10:47;21.70;50.30
64718;DHT22;62506;46.070;14.492;2023-04-15T09:13:12;21.70;50.60
64718;DHT22;62506;46.070;14.492;2023-04-15T09:15:38;21.70;50.50
64718;DHT22;62506;46.070;14.492;2023-04-15T09:18:04;21.80;50.60
64718;DHT22;62506;46.070;14.492;2023-04-15T09:20:30;21.80;50.80
64718;DHT22;62506;46.070;14.492;2023-04-15T09:23:02;21.90;50.70
64718;DHT22;62506;46.070;14.492;2023-04-15T09:25:39;21.80;49.50
64718;DHT22;62506;46.070;14.492;2023-04-15T09:28:07;21.80;49.80
64718;DHT22;62506;46.070;14.492;2023-04-15T09:30:33;21.80;50.30
64718;DHT22;62506;46.070;14.492;2023-04-15T09:32:59;21.60;44.50
64718;DHT22;62506;46.070;14.492;2023-04-15T09:35:35;21.30;47.30
64718;DHT22;62506;46.070;14.492;2023-04-15T09:38:05;21.40;48.40
64718;DHT22;62506;46.070;14.492;2023-04-15T09:40:35;21.50;49.20
64718;DHT22;62506;46.070;14.492;2023-04-15T09:43:02;21.50;49.50
64718;DHT22;62506;46.070;14.492;2023-04-15T09:45:28;21.60;49.90
64718;DHT22;62506;46.070;14.492;2023-04-15T09:47:53;21.50;48.50
64718;DHT22;62506;46.070;14.492;2023-04-15T09:50:19;21.50;49.40
64718;DHT22;62506;46.070;14.492;2023-04-15T09:52:47;21.60;49.90
64718;DHT22;62506;46.070;14.492;2023-04-15T09:55:13;21.60;50.00
64718;DHT22;62506;46.070;14.492;2023-04-15T09:57:40;21.60;50.30
64718;DHT22;62506;46.070;14.492;2023-04-15T10:00:06;21.60;50.50
64718;DHT22;62506;46.070;14.492;2023-04-15T10:02:35;21.60;50.70
64718;DHT22;62506;46.070;14.492;2023-04-15T10:05:01;21.60;49.80
64718;DHT22;62506;46.070;14.492;2023-04-15T10:07:27;20.90;45.00
64718;DHT22;62506;46.070;14.492;2023-04-15T10:09:52;20.20;46.00
64718;DHT22;62506;46.070;14.492;2023-04-15T10:12:19;20.30;47.50
64718;DHT22;62506;46.070;14.492;2023-04-15T10:14:51;20.50;47.40
64718;DHT22;62506;46.070;14.492;2023-04-15T10:17:17;20.80;48.10
64718;DHT22;62506;46.070;14.492;2023-04-15T10:19:46;21.00;48.90
64718;DHT22;62506;46.070;14.492;2023-04-15T10:22:13;21.20;49.20
64718;DHT22;62506;46.070;14.492;2023-04-15T10:24:38;21.30;49.60
64718;DHT22;62506;46.070;14.492;2023-04-15T10:27:04;21.40;50.40
64718;DHT22;62506;46.070;14.492;2023-04-15T10:29:30;21.40;50.30
64718;DHT22;62506;46.070;14.492;2023-04-15T10:31:55;21.40;50.70
64718;DHT22;62506;46.070;14.492;2023-04-15T10:34:24;21.40;50.90
64718;DHT22;62506;46.070;14.492;2023-04-15T10:36:49;21.50;51.40
64718;DHT22;62506;46.070;14.492;2023-04-15T10:42:33;21.50;52.10
64718;DHT22;62506;46.070;14.492;2023-04-15T10:44:55;21.50;52.20
64718;DHT22;62506;46.070;14.492;2023-04-15T10:47:21;21.50;52.60
64718;DHT22;62506;46.070;14.492;2023-04-15T10:49:50;21.50;52.80
64718;DHT22;62506;46.070;14.492;2023-04-15T10:52:17;21.60;53.20
64718;DHT22;62506;46.070;14.492;2023-04-15T10:54:43;21.60;53.30
64718;DHT22;62506;46.070;14.492;2023-04-15T10:57:13;21.60;53.70
64718;DHT22;62506;46.070;14.492;2023-04-15T11:02:42;21.60;54.40
64718;DHT22;62506;46.070;14.492;2023-04-15T11:05:10;21.70;55.20
64718;DHT22;62506;46.070;14.492;2023-04-15T11:13:01;21.80;54.50
64718;DHT22;62506;46.070;14.492;2023-04-15T11:15:34;21.80;54.70
64718;DHT22;62506;46.070;14.492;2023-04-15T11:18:22;21.80;54.60
64718;DHT22;62506;46.070;14.492;2023-04-15T11:20:55;21.80;54.60
64718;DHT22;62506;46.070;14.492;2023-04-15T11:23:32;21.80;54.50
64718;DHT22;62506;46.070;14.492;2023-04-15T11:25:58;21.90;54.50
64718;DHT22;62506;46.070;14.492;2023-04-15T11:28:25;21.90;54.50
64718;DHT22;62506;46.070;14.492;2023-04-15T11:30:51;21.90;54.60
64718;DHT22;62506;46.070;14.492;2023-04-15T11:33:16;21.90;54.50
64718;DHT22;62506;46.070;14.492;2023-04-15T11:35:42;22.00;54.20
64718;DHT22;62506;46.070;14.492;2023-04-15T11:38:11;22.00;53.80
64718;DHT22;62506;46.070;14.492;2023-04-15T11:40:38;22.00;54.00
64718;DHT22;62506;46.070;14.492;2023-04-15T11:43:04;21.90;54.10
64718;DHT22;62506;46.070;14.492;2023-04-15T11:45:30;21.90;54.20
64718;DHT22;62506;46.070;14.492;2023-04-15T11:48:06;21.90;54.20
64718;DHT22;62506;46.070;14.492;2023-04-15T11:50:32;21.90;53.90
64718;DHT22;62506;46.070;14.492;2023-04-15T11:52:58;21.90;54.10
64718;DHT22;62506;46.070;14.492;2023-04-15T11:55:25;21.80;54.10
64718;DHT22;62506;46.070;14.492;2023-04-15T12:00:37;21.80;54.10
64718;DHT22;62506;46.070;14.492;2023-04-15T12:03:38;21.80;54.00
64718;DHT22;62506;46.070;14.492;2023-04-15T12:11:14;21.70;53.80
64718;DHT22;62506;46.070;14.492;2023-04-15T12:13:49;21.70;53.80
64718;DHT22;62506;46.070;14.492;2023-04-15T12:16:18;21.80;53.80
64718;DHT22;62506;46.070;14.492;2023-04-15T12:18:44;21.80;53.70
64718;DHT22;62506;46.070;14.492;2023-04-15T12:21:10;21.80;53.50
64718;DHT22;62506;46.070;14.492;2023-04-15T12:23:52;21.80;53.60
64718;DHT22;62506;46.070;14.492;2023-04-15T12:26:24;21.90;53.50
64718;DHT22;62506;46.070;14.492;2023-04-15T12:28:52;21.90;53.40
64718;DHT22;62506;46.070;14.492;2023-04-15T12:31:18;21.90;53.10
64718;DHT22;62506;46.070;14.492;2023-04-15T12:33:46;21.90;53.10
64718;DHT22;62506;46.070;14.492;2023-04-15T12:36:12;22.00;52.50
64718;DHT22;62506;46.070;14.492;2023-04-15T12:38:37;22.20;52.70
64718;DHT22;62506;46.070;14.492;2023-04-15T12:41:03;22.30;52.60
64718;DHT22;62506;46.070;14.492;2023-04-15T12:43:28;22.30;53.10
64718;DHT22;62506;46.070;14.492;2023-04-15T12:45:54;22.20;52.70
64718;DHT22;62506;46.070;14.492;2023-04-15T12:48:19;22.30;52.90
64718;DHT22;62506;46.070;14.492;2023-04-15T12:50:45;22.20;52.60
64718;DHT22;62506;46.070;14.492;2023-04-15T12:53:11;22.20;52.60
64718;DHT22;62506;46.070;14.492;2023-04-15T12:55:37;22.10;52.70
64718;DHT22;62506;46.070;14.492;2023-04-15T12:58:02;22.10;52.50
64718;DHT22;62506;46.070;14.492;2023-04-15T13:00:28;22.20;53.00
64718;DHT22;62506;46.070;14.492;2023-04-15T13:02:54;22.30;52.60
64718;DHT22;62506;46.070;14.492;2023-04-15T13:05:19;22.30;52.60
64718;DHT22;62506;46.070;14.492;2023-04-15T13:07:45;22.30;52.10
64718;DHT22;62506;46.070;14.492;2023-04-15T13:10:11;21.50;46.60
64718;DHT22;62506;46.070;14.492;2023-04-15T13:12:36;21.50;49.10
64718;DHT22;62506;46.070;14.492;2023-04-15T13:15:02;21.70;49.80
64718;DHT22;62506;46.070;14.492;2023-04-15T13:17:28;21.90;50.40
64718;DHT22;62506;46.070;14.492;2023-04-15T13:19:54;21.90;50.70
64718;DHT22;62506;46.070;14.492;2023-04-15T13:22:20;22.00;50.90
64718;DHT22;62506;46.070;14.492;2023-04-15T13:24:45;22.00;51.10
64718;DHT22;62506;46.070;14.492;2023-04-15T13:27:11;22.10;51.70
64718;DHT22;62506;46.070;14.492;2023-04-15T13:29:36;22.10;51.70
64718;DHT22;62506;46.070;14.492;2023-04-15T13:32:03;22.10;51.50
64718;DHT22;62506;46.070;14.492;2023-04-15T13:34:28;22.10;51.40
64718;DHT22;62506;46.070;14.492;2023-04-15T13:36:54;22.10;50.80
64718;DHT22;62506;46.070;14.492;2023-04-15T13:39:19;22.00;50.40
64718;DHT22;62506;46.070;14.492;2023-04-15T13:41:45;22.10;51.30
64718;DHT22;62506;46.070;14.492;2023-04-15T13:44:12;22.10;51.80
64718;DHT22;62506;46.070;14.492;2023-04-15T13:46:39;22.10;51.40
64718;DHT22;62506;46.070;14.492;2023-04-15T13:49:06;22.10;51.20
64718;DHT22;62506;46.070;14.492;2023-04-15T13:51:31;22.10;51.60
64718;DHT22;62506;46.070;14.492;2023-04-15T13:53:57;22.10;51.40
64718;DHT22;62506;46.070;14.492;2023-04-15T13:56:22;22.10;51.70
64718;DHT22;62506;46.070;14.492;2023-04-15T13:58:51;22.10;51.80
64718;DHT22;62506;46.070;14.492;2023-04-15T14:01:19;22.20;52.20
64718;DHT22;62506;46.070;14.492;2023-04-15T14:03:44;22.20;52.20
64718;DHT22;62506;46.070;14.492;2023-04-15T14:06:10;22.20;52.40
64718;DHT22;62506;46.070;14.492;2023-04-15T14:08:36;22.20;52.30
64718;DHT22;62506;46.070;14.492;2023-04-15T14:11:01;22.30;52.10
64718;DHT22;62506;46.070;14.492;2023-04-15T14:13:27;22.30;51.90
64718;DHT22;62506;46.070;14.492;2023-04-15T14:15:53;22.30;51.70
64718;DHT22;62506;46.070;14.492;2023-04-15T14:18:18;22.30;51.60
64718;DHT22;62506;46.070;14.492;2023-04-15T14:20:44;22.40;51.60
64718;DHT22;62506;46.070;14.492;2023-04-15T14:23:12;22.40;51.60
64718;DHT22;62506;46.070;14.492;2023-04-15T14:25:38;22.40;51.50
64718;DHT22;62506;46.070;14.492;2023-04-15T14:28:04;22.40;51.60
64718;DHT22;62506;46.070;14.492;2023-04-15T14:30:29;22.50;51.80
64718;DHT22;62506;46.070;14.492;2023-04-15T14:32:55;22.50;51.70
64718;DHT22;62506;46.070;14.492;2023-04-15T14:35:21;22.60;51.90
64718;DHT22;62506;46.070;14.492;2023-04-15T14:37:46;22.60;51.90
64718;DHT22;62506;46.070;14.492;2023-04-15T14:40:12;22.60;51.90
64718;DHT22;62506;46.070;14.492;2023-04-15T14:42:37;22.60;51.80
64718;DHT22;62506;46.070;14.492;2023-04-15T14:45:03;22.60;52.30
64718;DHT22;62506;46.070;14.492;2023-04-15T14:47:28;22.60;52.20
64718;DHT22;62506;46.070;14.492;2023-04-15T14:49:55;22.60;52.00
64718;DHT22;62506;46.070;14.492;2023-04-15T14:52:21;22.70;51.90
64718;DHT22;62506;46.070;14.492;2023-04-15T14:54:46;22.60;51.90
64718;DHT22;62506;46.070;14.492;2023-04-15T14:57:12;22.70;51.80
64718;DHT22;62506;46.070;14.492;2023-04-15T14:59:37;22.60;49.10
64718;DHT22;62506;46.070;14.492;2023-04-15T15:02:03;21.50;43.40
64718;DHT22;62506;46.070;14.492;2023-04-15T15:04:28;21.10;45.10
64718;DHT22;62506;46.070;14.492;2023-04-15T15:06:54;21.50;46.60
64718;DHT22;62506;46.070;14.492;2023-04-15T15:09:19;21.70;48.40
64718;DHT22;62506;46.070;14.492;2023-04-15T15:11:48;21.90;48.30
64718;DHT22;62506;46.070;14.492;2023-04-15T15:14:14;22.10;48.30
64718;DHT22;62506;46.070;14.492;2023-04-15T15:16:39;22.10;48.60
64718;DHT22;62506;46.070;14.492;2023-04-15T15:19:05;22.20;48.90
64718;DHT22;62506;46.070;14.492;2023-04-15T15:21:30;22.30;49.00
64718;DHT22;62506;46.070;14.492;2023-04-15T15:23:56;22.30;49.00
64718;DHT22;62506;46.070;14.492;2023-04-15T15:26:21;22.40;49.20
64718;DHT22;62506;46.070;14.492;2023-04-15T15:28:47;22.40;49.60